createdAt,value
2022-11-19T00:00:03.118Z,11.18
2022-11-19T00:02:32.269Z,10.23
2022-11-19T00:05:02.361Z,10.90
2022-11-19T00:07:30.944Z,9.43
2022-11-19T00:10:01.811Z,9.35
2022-11-19T00:12:48.031Z,9.00
2022-11-19T00:15:16.734Z,8.27
2022-11-19T00:17:45.328Z,8.57
2022-11-19T00:20:15.426Z,8.30
2022-11-19T00:22:44.068Z,8.18
2022-11-19T00:25:12.996Z,8.70
2022-11-19T00:27:41.540Z,7.50
2022-11-19T00:30:40.322Z,7.75
2022-11-19T00:32:59.520Z,9.10
2022-11-19T00:35:29.498Z,8.10
2022-11-19T00:37:58.044Z,9.05
2022-11-19T00:40:28.807Z,9.43
2022-11-19T00:43:16.805Z,7.47
2022-11-19T00:45:45.457Z,8.80
2022-11-19T00:48:15.922Z,8.85
2022-11-19T00:50:45.916Z,8.68
2022-11-19T00:53:14.479Z,8.40
2022-11-19T00:55:43.117Z,7.90
2022-11-19T00:58:11.721Z,7.90
2022-11-19T01:00:40.371Z,7.90
2022-11-19T01:03:08.899Z,7.72
2022-11-19T01:05:37.509Z,6.90
2022-11-19T01:08:07.669Z,8.25
2022-11-19T01:10:36.370Z,7.80
2022-11-19T01:13:22.711Z,7.88
2022-11-19T01:15:51.363Z,6.85
2022-11-19T01:18:20.275Z,7.80
2022-11-19T01:20:48.888Z,8.00
2022-11-19T01:23:20.661Z,8.27
2022-11-19T01:25:49.264Z,6.85
2022-11-19T01:28:18.261Z,7.70
2022-11-19T01:30:46.898Z,6.90
2022-11-19T01:33:15.477Z,7.05
2022-11-19T01:35:44.411Z,7.93
2022-11-19T01:38:13.003Z,7.05
2022-11-19T01:40:46.219Z,8.23
2022-11-19T01:43:14.846Z,7.45
2022-11-19T01:45:48.218Z,8.35
2022-11-19T01:48:18.824Z,8.80
2022-11-19T01:50:49.829Z,7.40
2022-11-19T01:53:19.257Z,8.40
2022-11-19T01:55:49.251Z,8.18
2022-11-19T01:58:19.774Z,8.23
2022-11-19T02:00:50.088Z,6.95
2022-11-19T02:03:18.826Z,8.10
2022-11-19T02:05:47.483Z,8.00
2022-11-19T02:08:34.795Z,9.15
2022-11-19T02:11:11.308Z,10.50
2022-11-19T02:13:41.870Z,8.85
2022-11-19T02:16:14.570Z,8.30
2022-11-19T02:18:45.855Z,8.90
2022-11-19T02:21:23.903Z,8.65
2022-11-19T02:24:29.734Z,8.40
2022-11-19T02:27:23.895Z,8.55
2022-11-19T02:30:02.562Z,8.00
2022-11-19T02:32:32.608Z,9.80
2022-11-19T02:35:05.528Z,9.88
2022-11-19T02:37:36.204Z,10.25
2022-11-19T02:40:05.722Z,11.65
2022-11-19T02:42:36.065Z,10.15
2022-11-19T02:45:09.697Z,10.18
2022-11-19T02:47:40.410Z,9.85
2022-11-19T02:50:11.034Z,9.73
2022-11-19T02:52:39.980Z,9.07
2022-11-19T02:55:11.948Z,9.60
2022-11-19T02:57:40.493Z,10.65
2022-11-19T03:00:28.829Z,10.50
2022-11-19T03:03:17.261Z,9.40
2022-11-19T03:05:50.154Z,10.00
2022-11-19T03:08:18.799Z,9.38
2022-11-19T03:10:52.789Z,8.57
2022-11-19T03:13:42.873Z,8.32
2022-11-19T03:16:36.418Z,9.80
2022-11-19T03:19:09.351Z,9.02
2022-11-19T03:21:39.898Z,9.57
2022-11-19T03:24:10.071Z,8.77
2022-11-19T03:26:42.269Z,8.98
2022-11-19T03:29:12.118Z,8.65
2022-11-19T03:31:43.041Z,9.50
2022-11-19T03:34:13.793Z,10.18
2022-11-19T03:36:42.768Z,10.25
2022-11-19T03:39:14.222Z,9.43
2022-11-19T03:41:43.073Z,9.85
2022-11-19T03:44:13.217Z,9.02
2022-11-19T03:46:45.512Z,8.32
2022-11-19T03:49:14.248Z,9.45
2022-11-19T03:51:44.862Z,8.82
2022-11-19T03:54:13.456Z,9.35
2022-11-19T03:56:42.186Z,8.95
2022-11-19T03:59:11.426Z,8.45
2022-11-19T04:01:40.075Z,7.93
2022-11-19T04:04:29.642Z,8.77
2022-11-19T04:06:58.318Z,8.23
2022-11-19T04:09:26.930Z,7.80
2022-11-19T04:14:24.798Z,9.05
2022-11-19T04:16:53.436Z,8.25
2022-11-19T04:19:23.464Z,7.85
2022-11-19T04:21:52.069Z,8.50
2022-11-19T04:24:20.684Z,8.35
2022-11-19T04:26:49.341Z,10.00
2022-11-19T04:29:20.526Z,8.30
2022-11-19T04:31:49.392Z,9.15
2022-11-19T04:34:18.087Z,9.18
2022-11-19T04:36:48.038Z,7.72
2022-11-19T04:39:21.246Z,7.55
2022-11-19T04:41:52.685Z,7.00
2022-11-19T04:44:21.234Z,7.32
2022-11-19T04:46:49.859Z,8.30
2022-11-19T04:49:20.784Z,7.07
2022-11-19T04:51:50.878Z,8.23
2022-11-19T04:54:19.453Z,7.72
2022-11-19T04:56:48.040Z,6.90
2022-11-19T04:59:16.811Z,6.70
2022-11-19T05:01:49.745Z,8.40
2022-11-19T05:04:18.386Z,7.28
2022-11-19T05:06:47.002Z,8.00
2022-11-19T05:09:17.266Z,7.80
2022-11-19T05:11:46.226Z,7.70
2022-11-19T05:14:17.210Z,8.15
2022-11-19T05:16:45.802Z,7.25
2022-11-19T05:19:14.536Z,8.60
2022-11-19T05:21:44.049Z,8.18
2022-11-19T05:24:12.717Z,7.95
2022-11-19T05:26:44.407Z,7.78
2022-11-19T05:29:13.201Z,8.70
2022-11-19T05:31:43.668Z,7.72
2022-11-19T05:34:12.227Z,8.75
2022-11-19T05:36:40.788Z,9.68
2022-11-19T05:39:09.512Z,8.32
2022-11-19T05:41:38.106Z,8.38
2022-11-19T05:44:10.370Z,7.68
2022-11-19T05:46:39.010Z,8.30
2022-11-19T05:49:07.702Z,8.75
2022-11-19T05:51:37.964Z,7.00
2022-11-19T05:54:06.684Z,8.35
2022-11-19T05:56:35.328Z,8.30
2022-11-19T05:59:03.947Z,8.95
2022-11-19T06:01:34.144Z,8.70
2022-11-19T06:04:02.818Z,8.05
2022-11-19T06:06:31.412Z,9.30
2022-11-19T06:09:01.129Z,8.98
2022-11-19T06:11:47.004Z,8.48
2022-11-19T06:14:15.954Z,7.90
2022-11-19T06:16:47.762Z,8.73
2022-11-19T06:19:18.350Z,9.50
2022-11-19T06:21:47.244Z,8.52
2022-11-19T06:24:15.861Z,7.43
2022-11-19T06:26:54.642Z,8.30
2022-11-19T06:29:23.267Z,7.43
2022-11-19T06:31:53.202Z,7.72
2022-11-19T06:34:21.842Z,9.07
2022-11-19T06:36:50.824Z,9.95
2022-11-19T06:39:19.969Z,10.38
2022-11-19T06:41:50.845Z,9.25
2022-11-19T06:44:19.406Z,10.60
2022-11-19T06:46:48.002Z,10.23
2022-11-19T06:49:20.299Z,8.63
2022-11-19T06:51:49.215Z,8.00
2022-11-19T06:54:20.202Z,8.90
2022-11-19T06:56:48.814Z,9.45
2022-11-19T06:59:17.892Z,7.88
2022-11-19T07:01:46.865Z,7.43
2022-11-19T07:04:17.677Z,8.20
2022-11-19T07:06:46.461Z,8.23
2022-11-19T07:09:15.250Z,8.02
2022-11-19T07:11:43.960Z,8.55
2022-11-19T07:14:16.328Z,8.85
2022-11-19T07:16:45.674Z,8.15
2022-11-19T07:19:18.203Z,8.98
2022-11-19T07:21:48.135Z,8.20
2022-11-19T07:24:19.986Z,9.50
2022-11-19T07:26:48.575Z,9.57
2022-11-19T07:29:19.676Z,9.55
2022-11-19T07:31:50.685Z,9.45
2022-11-19T07:34:20.719Z,8.07
2022-11-19T07:36:49.403Z,9.73
2022-11-19T07:39:18.507Z,8.55
2022-11-19T07:42:05.047Z,9.95
2022-11-19T07:44:33.878Z,8.98
2022-11-19T07:47:02.592Z,8.57
2022-11-19T07:49:32.670Z,9.10
2022-11-19T07:52:01.249Z,9.20
2022-11-19T07:54:29.928Z,8.75
2022-11-19T07:56:58.542Z,8.55
2022-11-19T07:59:28.670Z,9.63
2022-11-19T08:01:57.361Z,9.35
2022-11-19T08:04:31.278Z,7.95
2022-11-19T08:06:59.892Z,8.27
2022-11-19T08:09:28.511Z,8.80
2022-11-19T08:11:57.098Z,8.02
2022-11-19T08:14:28.978Z,9.00
2022-11-19T08:17:15.045Z,8.57
2022-11-19T08:19:47.293Z,13.05
2022-11-19T08:22:18.049Z,8.70
2022-11-19T08:24:48.715Z,8.35
2022-11-19T08:27:18.476Z,8.77
2022-11-19T08:29:47.502Z,8.45
2022-11-19T08:32:16.126Z,8.15
2022-11-19T08:34:46.169Z,8.00
2022-11-19T08:37:14.836Z,7.55
2022-11-19T08:39:43.440Z,8.13
2022-11-19T08:42:30.464Z,7.40
2022-11-19T08:44:59.089Z,6.80
2022-11-19T08:47:27.697Z,7.15
2022-11-19T08:49:57.745Z,7.05
2022-11-19T08:52:28.148Z,7.13
2022-11-19T08:54:56.757Z,7.25
2022-11-19T08:57:25.361Z,7.40
2022-11-19T08:59:54.164Z,6.90
2022-11-19T09:02:22.816Z,7.13
2022-11-19T09:04:51.993Z,6.47
2022-11-19T09:07:22.046Z,6.95
2022-11-19T09:09:50.918Z,7.45
2022-11-19T09:12:19.558Z,5.85
2022-11-19T09:14:48.112Z,5.63
2022-11-19T09:17:16.785Z,5.82
2022-11-19T09:19:45.499Z,5.43
2022-11-19T09:22:14.108Z,5.97
2022-11-19T09:24:44.116Z,6.45
2022-11-19T09:27:12.757Z,6.15
2022-11-19T09:29:41.428Z,6.30
2022-11-19T09:32:14.418Z,6.30
2022-11-19T09:34:43.283Z,5.88
2022-11-19T09:37:12.141Z,6.93
2022-11-19T09:39:40.737Z,6.07
2022-11-19T09:42:16.810Z,6.97
2022-11-19T09:45:10.261Z,6.43
2022-11-19T09:47:49.043Z,6.35
2022-11-19T09:50:19.851Z,6.03
2022-11-19T09:52:50.550Z,6.07
2022-11-19T09:55:21.975Z,7.15
2022-11-19T09:57:57.470Z,6.80
2022-11-19T10:00:28.223Z,5.30
2022-11-19T10:02:57.778Z,6.28
2022-11-19T10:05:32.123Z,6.53
2022-11-19T10:08:10.621Z,6.40
2022-11-19T10:10:42.399Z,6.78
2022-11-19T10:13:18.438Z,6.70
2022-11-19T10:16:04.107Z,6.20
2022-11-19T10:18:37.265Z,5.20
2022-11-19T10:21:10.267Z,5.65
2022-11-19T10:23:51.109Z,5.03
2022-11-19T10:26:20.379Z,4.97
2022-11-19T10:28:55.385Z,5.10
2022-11-19T10:31:29.440Z,5.00
2022-11-19T10:34:02.664Z,4.72
2022-11-19T10:36:34.390Z,4.95
2022-11-19T10:39:04.731Z,4.85
2022-11-19T10:41:35.467Z,4.75
2022-11-19T10:44:32.375Z,5.43
2022-11-19T10:47:01.761Z,5.18
2022-11-19T10:49:30.375Z,5.15
2022-11-19T10:51:59.309Z,4.50
2022-11-19T10:54:28.901Z,6.00
2022-11-19T10:56:57.711Z,4.10
2022-11-19T10:59:28.987Z,3.88
2022-11-19T11:01:58.776Z,3.85
2022-11-19T11:04:28.193Z,5.35
2022-11-19T11:06:58.033Z,4.40
2022-11-19T11:09:33.400Z,4.45
2022-11-19T11:12:22.686Z,3.95
2022-11-19T11:14:55.623Z,4.40
2022-11-19T11:17:26.122Z,4.57
2022-11-19T11:20:05.506Z,4.38
2022-11-19T11:22:34.913Z,3.45
2022-11-19T11:25:07.446Z,3.70
2022-11-19T11:27:37.004Z,3.40
2022-11-19T11:30:17.336Z,3.97
2022-11-19T11:32:47.140Z,3.28
2022-11-19T11:35:32.699Z,3.55
2022-11-19T11:38:01.852Z,3.60
2022-11-19T11:40:32.709Z,3.85
2022-11-19T11:43:01.277Z,3.80
2022-11-19T11:45:32.812Z,4.00
2022-11-19T11:48:06.885Z,4.40
2022-11-19T11:50:35.467Z,3.40
2022-11-19T11:53:08.609Z,3.42
2022-11-19T11:55:38.630Z,3.55
2022-11-19T11:58:07.968Z,3.28
2022-11-19T12:00:38.672Z,3.40
2022-11-19T12:03:08.301Z,4.15
2022-11-19T12:05:50.674Z,5.93
2022-11-19T12:08:31.271Z,3.90
2022-11-19T12:11:02.035Z,3.53
2022-11-19T12:13:45.900Z,3.33
2022-11-19T12:16:19.351Z,3.65
2022-11-19T12:18:52.602Z,3.58
2022-11-19T12:21:49.014Z,3.67
2022-11-19T12:24:25.738Z,3.72
2022-11-19T12:26:58.261Z,5.07
2022-11-19T12:29:28.780Z,4.32
2022-11-19T12:32:10.095Z,4.40
2022-11-19T12:35:05.278Z,3.72
2022-11-19T12:37:49.155Z,3.25
2022-11-19T12:40:24.699Z,3.22
2022-11-19T12:42:58.051Z,3.40
2022-11-19T12:45:30.563Z,3.83
2022-11-19T12:48:19.601Z,2.77
2022-11-19T12:50:51.497Z,3.15
2022-11-19T12:53:26.096Z,3.00
2022-11-19T12:56:01.341Z,3.15
2022-11-19T12:58:36.400Z,3.35
2022-11-19T13:01:07.943Z,3.50
2022-11-19T13:03:47.293Z,3.75
2022-11-19T13:06:20.474Z,3.08
2022-11-19T13:08:50.465Z,3.03
2022-11-19T13:11:21.659Z,3.88
2022-11-19T13:13:52.475Z,3.50
2022-11-19T13:16:22.248Z,4.10
2022-11-19T13:18:53.166Z,4.00
2022-11-19T13:21:40.332Z,3.95
2022-11-19T13:24:28.036Z,4.40
2022-11-19T13:26:58.821Z,4.00
2022-11-19T13:29:33.637Z,3.80
2022-11-19T13:32:03.489Z,3.75
2022-11-19T13:34:38.089Z,3.60
2022-11-19T13:37:13.177Z,3.75
2022-11-19T13:39:43.100Z,3.97
2022-11-19T13:42:28.895Z,4.60
2022-11-19T13:44:57.517Z,4.30
2022-11-19T13:47:26.777Z,3.95
2022-11-19T13:49:57.986Z,4.00
2022-11-19T13:52:29.889Z,3.85
2022-11-19T13:54:58.575Z,4.80
2022-11-19T13:57:30.831Z,5.53
2022-11-19T14:00:01.132Z,4.30
2022-11-19T14:02:52.740Z,4.43
2022-11-19T14:05:49.922Z,4.70
2022-11-19T14:08:34.921Z,4.28
2022-11-19T14:11:10.374Z,4.00
2022-11-19T14:13:56.161Z,4.20
2022-11-19T14:16:45.255Z,4.20
2022-11-19T14:19:33.259Z,4.35
2022-11-19T14:22:36.974Z,4.38
2022-11-19T14:25:25.842Z,4.70
2022-11-19T14:27:54.819Z,4.63
2022-11-19T14:30:23.449Z,4.80
2022-11-19T14:32:52.811Z,4.30
2022-11-19T14:35:35.949Z,4.88
2022-11-19T14:38:32.250Z,4.35
2022-11-19T14:41:16.733Z,4.45
2022-11-19T14:44:10.608Z,4.68
2022-11-19T14:46:57.767Z,3.97
2022-11-19T14:49:28.612Z,3.88
2022-11-19T14:51:59.386Z,4.13
2022-11-19T14:54:38.712Z,4.00
2022-11-19T14:57:16.760Z,4.78
2022-11-19T14:59:48.149Z,4.13
2022-11-19T15:02:21.798Z,4.68
2022-11-19T15:05:05.282Z,3.88
2022-11-19T15:07:45.540Z,4.75
2022-11-19T15:10:48.357Z,4.10
2022-11-19T15:13:37.766Z,4.00
2022-11-19T15:16:11.149Z,4.45
2022-11-19T15:19:22.211Z,5.20
2022-11-19T15:22:34.888Z,5.30
2022-11-19T15:25:39.173Z,4.82
2022-11-19T15:28:18.857Z,4.75
2022-11-19T15:30:59.354Z,4.93
2022-11-19T15:33:47.198Z,5.10
2022-11-19T15:36:30.204Z,5.57
2022-11-19T15:39:01.558Z,5.38
2022-11-19T15:41:31.665Z,6.05
2022-11-19T15:44:03.038Z,5.72
2022-11-19T15:46:35.924Z,5.85
2022-11-19T15:49:08.856Z,6.00
2022-11-19T15:51:45.414Z,7.35
2022-11-19T15:54:14.085Z,6.85
2022-11-19T15:56:47.798Z,5.95
2022-11-19T15:59:18.596Z,5.97
2022-11-19T16:01:47.658Z,5.80
2022-11-19T16:04:17.437Z,4.50
2022-11-19T16:06:48.843Z,5.03
2022-11-19T16:09:18.914Z,5.10
2022-11-19T16:12:05.226Z,6.00
2022-11-19T16:14:52.463Z,5.60
2022-11-19T16:17:41.706Z,6.00
2022-11-19T16:20:21.086Z,5.20
2022-11-19T16:22:55.703Z,6.10
2022-11-19T16:25:32.747Z,5.35
2022-11-19T16:28:02.485Z,5.90
2022-11-19T16:30:39.133Z,5.53
2022-11-19T16:33:07.909Z,5.38
2022-11-19T16:35:36.566Z,5.18
2022-11-19T16:38:05.244Z,6.80
2022-11-19T16:40:54.307Z,5.68
2022-11-19T16:43:22.664Z,6.05
2022-11-19T16:45:52.653Z,6.78
2022-11-19T16:48:55.161Z,5.63
2022-11-19T16:51:32.084Z,6.47
2022-11-19T16:54:00.752Z,6.50
2022-11-19T16:56:32.522Z,6.60
2022-11-19T16:59:02.639Z,6.43
2022-11-19T17:01:32.729Z,7.65
2022-11-19T17:04:03.118Z,7.60
2022-11-19T17:06:33.010Z,7.93
2022-11-19T17:09:02.997Z,11.05
2022-11-19T17:11:59.573Z,7.10
2022-11-19T17:14:46.918Z,29.38
2022-11-19T17:17:41.248Z,10.40
2022-11-19T17:20:52.540Z,11.68
2022-11-19T17:23:21.793Z,7.75
2022-11-19T17:25:51.193Z,7.32
2022-11-19T17:28:21.577Z,7.85
2022-11-19T17:30:50.488Z,7.72
2022-11-19T17:33:20.762Z,9.13
2022-11-19T17:35:49.635Z,8.55
2022-11-19T17:38:18.884Z,8.38
2022-11-19T17:40:48.423Z,7.90
2022-11-19T17:43:35.082Z,8.02
2022-11-19T17:46:03.690Z,7.35
2022-11-19T17:48:35.035Z,7.82
2022-11-19T17:51:03.657Z,7.63
2022-11-19T17:53:32.244Z,7.50
2022-11-19T17:56:00.982Z,7.22
2022-11-19T17:58:29.579Z,7.47
2022-11-19T18:00:58.208Z,9.20
2022-11-19T18:03:26.881Z,9.05
2022-11-19T18:05:58.135Z,8.25
2022-11-19T18:08:26.770Z,8.23
2022-11-19T18:10:55.339Z,8.35
2022-11-19T18:13:26.122Z,8.00
2022-11-19T18:15:54.755Z,7.78
2022-11-19T18:18:23.505Z,8.27
2022-11-19T18:20:55.412Z,8.05
2022-11-19T18:23:27.652Z,8.43
2022-11-19T18:25:56.207Z,7.68
2022-11-19T18:28:25.233Z,8.98
2022-11-19T18:30:54.171Z,8.20
2022-11-19T18:33:22.840Z,7.85
2022-11-19T18:35:53.342Z,8.10
2022-11-19T18:38:21.962Z,7.75
2022-11-19T18:40:52.012Z,8.18
2022-11-19T18:43:40.085Z,8.20
2022-11-19T18:46:08.778Z,9.30
2022-11-19T18:48:37.380Z,8.43
2022-11-19T18:51:08.158Z,8.35
2022-11-19T18:53:37.033Z,9.00
2022-11-19T18:56:08.768Z,8.75
2022-11-19T18:58:37.379Z,8.20
2022-11-19T19:01:06.339Z,8.48
2022-11-19T19:03:34.968Z,11.77
2022-11-19T19:06:03.654Z,8.45
2022-11-19T19:08:32.287Z,9.00
2022-11-19T19:11:14.818Z,8.25
2022-11-19T19:13:44.772Z,9.18
2022-11-19T19:16:13.546Z,8.25
2022-11-19T19:18:42.135Z,9.48
2022-11-19T19:21:14.424Z,8.52
2022-11-19T19:23:43.201Z,9.23
2022-11-19T19:26:12.154Z,9.45
2022-11-19T19:28:40.783Z,8.60
2022-11-19T19:31:16.431Z,8.45
2022-11-19T19:33:46.595Z,9.23
2022-11-19T19:36:17.784Z,8.20
2022-11-19T19:38:46.469Z,8.00
2022-11-19T19:41:16.008Z,9.07
2022-11-19T19:43:45.278Z,9.15
2022-11-19T19:46:17.016Z,9.00
2022-11-19T19:48:46.174Z,8.20
2022-11-19T19:51:16.042Z,8.60
2022-11-19T19:53:44.668Z,7.53
2022-11-19T19:56:14.373Z,8.82
2022-11-19T19:58:43.782Z,8.55
2022-11-19T20:01:15.074Z,7.78
2022-11-19T20:03:43.714Z,8.10
2022-11-19T20:06:13.164Z,8.98
2022-11-19T20:08:42.634Z,7.65
2022-11-19T20:11:14.274Z,6.80
2022-11-19T20:13:43.048Z,8.27
2022-11-19T20:16:17.545Z,8.70
2022-11-19T20:18:48.660Z,8.00
2022-11-19T20:21:18.528Z,8.52
2022-11-19T20:23:47.172Z,8.20
2022-11-19T20:26:17.005Z,8.80
2022-11-19T20:28:45.894Z,9.15
2022-11-19T20:31:15.283Z,7.80
2022-11-19T20:33:47.740Z,8.25
2022-11-19T20:36:16.933Z,8.00
2022-11-19T20:38:46.087Z,7.75
2022-11-19T20:41:29.538Z,8.45
2022-11-19T20:44:15.907Z,8.73
2022-11-19T20:46:44.612Z,9.10
2022-11-19T20:49:17.134Z,9.07
2022-11-19T20:51:46.139Z,8.85
2022-11-19T20:54:14.740Z,8.35
2022-11-19T20:56:43.563Z,7.90
2022-11-19T20:59:12.267Z,8.30
2022-11-19T21:01:40.973Z,8.23
2022-11-19T21:04:09.759Z,7.00
2022-11-19T21:06:39.710Z,7.60
2022-11-19T21:09:08.441Z,8.25
2022-11-19T21:11:37.441Z,8.30
2022-11-19T21:14:05.973Z,8.00
2022-11-19T21:16:34.617Z,8.32
2022-11-19T21:19:04.983Z,8.25
2022-11-19T21:21:34.192Z,8.95
2022-11-19T21:24:04.205Z,7.53
2022-11-19T21:26:34.797Z,8.20
2022-11-19T21:29:03.527Z,8.32
2022-11-19T21:31:39.842Z,7.60
2022-11-19T21:34:09.590Z,8.63
2022-11-19T21:36:38.200Z,7.63
2022-11-19T21:39:08.516Z,8.02
2022-11-19T21:41:37.606Z,8.80
2022-11-19T21:44:06.513Z,8.63
2022-11-19T21:46:35.345Z,8.80
2022-11-19T21:49:04.016Z,7.72
2022-11-19T21:51:32.598Z,8.60
2022-11-19T21:54:01.273Z,7.78
2022-11-19T21:56:38.301Z,8.45
2022-11-19T21:59:07.903Z,8.68
2022-11-19T22:01:36.504Z,7.80
2022-11-19T22:04:05.183Z,8.98
2022-11-19T22:06:33.721Z,9.20
2022-11-19T22:09:02.288Z,8.40
2022-11-19T22:11:34.108Z,8.88
2022-11-19T22:14:03.634Z,7.32
2022-11-19T22:16:34.619Z,7.18
2022-11-19T22:19:03.304Z,7.82
2022-11-19T22:21:31.882Z,8.73
2022-11-19T22:24:07.260Z,7.65
2022-11-19T22:26:37.206Z,7.75
2022-11-19T22:29:05.762Z,8.00
2022-11-19T22:31:34.374Z,7.68
2022-11-19T22:34:02.959Z,8.13
2022-11-19T22:36:33.175Z,8.07
2022-11-19T22:39:03.492Z,8.02
2022-11-19T22:41:32.075Z,8.15
2022-11-19T22:44:02.076Z,8.02
2022-11-19T22:46:30.666Z,8.43
2022-11-19T22:48:59.310Z,7.70
2022-11-19T22:51:29.337Z,8.00
2022-11-19T22:53:57.862Z,7.82
2022-11-19T22:56:27.967Z,7.97
2022-11-19T22:58:56.854Z,7.50
2022-11-19T23:01:29.733Z,9.05
2022-11-19T23:04:00.036Z,8.52
2022-11-19T23:06:28.587Z,9.02
2022-11-19T23:08:57.272Z,9.43
2022-11-19T23:11:39.737Z,9.27
2022-11-19T23:14:08.869Z,8.73
2022-11-19T23:16:38.806Z,9.18
2022-11-19T23:19:08.018Z,8.50
2022-11-19T23:21:36.950Z,9.23
2022-11-19T23:24:05.937Z,8.88
2022-11-19T23:26:34.718Z,8.50
2022-11-19T23:29:03.347Z,9.75
2022-11-19T23:31:32.445Z,9.00
2022-11-19T23:34:02.424Z,8.80
2022-11-19T23:36:31.952Z,7.50
2022-11-19T23:39:00.553Z,11.20
2022-11-19T23:41:29.414Z,9.13
2022-11-19T23:43:58.001Z,9.15
2022-11-19T23:46:27.313Z,9.50
2022-11-19T23:48:56.842Z,8.65
2022-11-19T23:51:27.611Z,9.38
2022-11-19T23:53:56.309Z,8.80
2022-11-19T23:56:25.111Z,9.05
2022-11-19T23:58:53.726Z,9.10
